Time;durP1;ratioP1;P1;durP2;ratioP2;P2;SDS_P1;SDS_P2;PMS_P1;PMS_P2;Temp;Humidity;BMP_temperature;BMP_pressure;BME280_temperature;BME280_humidity;BME280_pressure;Samples;Min_cycle;Max_cycle;Signal;HPM_P1;HPM_P2
2021/09/01 00:01:34;;;;;;;;;;;;;;;20.88;59.31;100656.81;5119826;28;863;-45
2021/09/01 00:03:59;;;;;;;;;;;;;;;20.35;58.14;100665.13;5119055;28;764;-47
2021/09/01 00:06:25;;;;;;;;;;;;;;;20.08;55.00;100665.88;5119388;28;858;-46
2021/09/01 00:08:51;;;;;;;;;;;;;;;19.44;52.73;100663.44;5119025;28;1973;-46
2021/09/01 00:11:17;;;;;;;;;;;;;;;18.70;51.15;100655.41;5118871;28;1027;-44
2021/09/01 00:13:43;;;;;;;;;;;;;;;18.48;49.23;100650.41;5119137;28;1007;-44
2021/09/01 00:16:25;;;;;;;;;;;;;;;18.17;47.62;100649.84;5119321;28;771;-48
2021/09/01 00:18:51;;;;;;;;;;;;;;;18.27;48.41;100641.50;5119085;28;763;-44
2021/09/01 00:21:17;;;;;;;;;;;;;;;18.73;51.71;100637.50;5119223;28;866;-45
2021/09/01 00:23:42;;;;;;;;;;;;;;;19.21;54.17;100636.69;5118748;28;775;-44
2021/09/01 00:26:08;;;;;;;;;;;;;;;19.31;56.59;100639.34;5118661;28;791;-45
2021/09/01 00:28:33;;;;;;;;;;;;;;;19.53;58.03;100632.44;5118369;28;1978;-44
2021/09/01 00:30:58;;;;;;;;;;;;;;;19.66;59.03;100634.47;5119235;28;768;-44
2021/09/01 00:33:24;;;;;;;;;;;;;;;19.94;59.18;100629.13;5118138;28;802;-44
2021/09/01 00:35:49;;;;;;;;;;;;;;;20.10;59.75;100630.50;5118839;28;820;-44
2021/09/01 00:38:15;;;;;;;;;;;;;;;20.35;59.59;100647.75;5118664;28;820;-48
2021/09/01 00:40:40;;;;;;;;;;;;;;;20.23;60.44;100644.66;5118669;28;763;-47
2021/09/01 00:43:06;;;;;;;;;;;;;;;20.35;60.59;100643.03;5118354;28;962;-46
2021/09/01 00:45:32;;;;;;;;;;;;;;;20.26;60.00;100649.56;5118561;28;815;-45
2021/09/01 00:47:57;;;;;;;;;;;;;;;19.97;57.51;100647.84;5117920;28;1975;-45
2021/09/01 00:50:22;;;;;;;;;;;;;;;19.61;54.36;100645.56;5118716;28;739;-45
2021/09/01 00:52:48;;;;;;;;;;;;;;;18.98;52.12;100641.94;5118328;28;799;-44
2021/09/01 00:55:13;;;;;;;;;;;;;;;18.59;49.55;100645.63;5118170;28;558;-45
2021/09/01 00:57:40;;;;;;;;;;;;;;;18.28;48.55;100643.97;5099404;28;1014;-45
2021/09/01 01:00:06;;;;;;;;;;;;;;;18.36;50.35;100637.03;5117935;28;823;-44
2021/09/01 01:02:35;;;;;;;;;;;;;;;18.90;53.63;100648.09;5118194;28;811;-45
2021/09/01 01:05:00;;;;;;;;;;;;;;;19.23;55.84;100648.28;5118193;28;803;-45
2021/09/01 01:07:25;;;;;;;;;;;;;;;19.52;57.26;100647.34;5118269;28;795;-46
2021/09/01 01:09:51;;;;;;;;;;;;;;;19.65;58.47;100643.84;5117874;28;1968;-51
2021/09/01 01:12:20;;;;;;;;;;;;;;;19.88;59.25;100649.63;5117543;28;1030;-46
2021/09/01 01:14:46;;;;;;;;;;;;;;;20.00;59.53;100647.22;5117763;28;850;-47
2021/09/01 01:17:13;;;;;;;;;;;;;;;20.23;59.59;100644.66;5118111;28;779;-45
2021/09/01 01:19:41;;;;;;;;;;;;;;;20.41;59.77;100648.50;5118129;28;755;-48
2021/09/01 01:22:10;;;;;;;;;;;;;;;20.41;60.25;100640.22;5118078;28;850;-47
2021/09/01 01:24:47;;;;;;;;;;;;;;;20.56;60.37;100639.94;5117280;28;740;-53
2021/09/01 01:27:31;;;;;;;;;;;;;;;20.73;59.96;100636.59;5117331;28;950;-46
2021/09/01 01:29:57;;;;;;;;;;;;;;;20.65;59.35;100640.03;5117645;28;811;-49
2021/09/01 01:32:23;;;;;;;;;;;;;;;20.15;58.15;100637.88;5117590;28;763;-47
2021/09/01 01:34:49;;;;;;;;;;;;;;;20.13;55.18;100632.66;5116733;28;874;-46
2021/09/01 01:37:14;;;;;;;;;;;;;;;19.63;53.46;100638.63;5117270;28;827;-50
2021/09/01 01:39:39;;;;;;;;;;;;;;;19.22;52.34;100638.34;5117341;28;748;-49
2021/09/01 01:42:05;;;;;;;;;;;;;;;19.01;51.07;100635.03;5117226;28;966;-46
2021/09/01 01:44:31;;;;;;;;;;;;;;;18.83;50.15;100628.31;5117293;28;854;-45
2021/09/01 01:46:56;;;;;;;;;;;;;;;18.66;49.88;100634.28;5117191;28;803;-46
2021/09/01 01:49:22;;;;;;;;;;;;;;;18.85;50.00;100645.38;5117671;28;1966;-45
2021/09/01 01:51:48;;;;;;;;;;;;;;;18.67;51.72;100636.72;5117053;28;813;-44
2021/09/01 01:54:13;;;;;;;;;;;;;;;18.89;52.60;100635.44;5117058;28;759;-44
2021/09/01 01:56:38;;;;;;;;;;;;;;;18.97;53.53;100645.81;5116742;28;950;-45
2021/09/01 01:59:04;;;;;;;;;;;;;;;19.01;54.28;100629.50;5117252;28;794;-49
2021/09/01 02:01:29;;;;;;;;;;;;;;;19.09;55.46;100635.19;5117017;28;780;-52
2021/09/01 02:03:55;;;;;;;;;;;;;;;19.37;56.58;100635.41;5116911;28;819;-45
2021/09/01 02:06:20;;;;;;;;;;;;;;;19.56;57.84;100642.88;5117065;28;767;-46
2021/09/01 02:08:46;;;;;;;;;;;;;;;19.94;58.32;100653.97;5116949;28;1973;-49
2021/09/01 02:11:11;;;;;;;;;;;;;;;20.06;59.08;100648.78;5117136;28;1102;-46
2021/09/01 02:13:37;;;;;;;;;;;;;;;20.29;58.96;100644.28;5117010;28;1008;-47
2021/09/01 02:16:02;;;;;;;;;;;;;;;20.26;60.13;100638.50;5116477;28;811;-45
2021/09/01 02:18:28;;;;;;;;;;;;;;;20.51;59.74;100640.03;5116846;28;870;-47
2021/09/01 02:20:53;;;;;;;;;;;;;;;20.77;59.24;100632.13;5117100;28;795;-47
2021/09/01 02:23:19;;;;;;;;;;;;;;;20.79;59.02;100635.41;5116877;28;812;-46
2021/09/01 02:25:44;;;;;;;;;;;;;;;20.12;58.46;100628.25;5116630;28;851;-45
2021/09/01 02:28:09;;;;;;;;;;;;;;;19.76;55.31;100634.31;5116685;28;1977;-45
2021/09/01 02:30:35;;;;;;;;;;;;;;;19.27;52.45;100638.31;5116435;28;784;-48
2021/09/01 02:33:00;;;;;;;;;;;;;;;18.87;50.08;100638.47;5116777;28;863;-45
2021/09/01 02:35:26;;;;;;;;;;;;;;;18.71;48.74;100645.25;5116848;28;759;-49
2021/09/01 02:37:52;;;;;;;;;;;;;;;18.27;49.44;100633.25;5116831;28;797;-45
2021/09/01 02:40:18;;;;;;;;;;;;;;;18.38;50.99;100637.53;5116657;28;875;-45
2021/09/01 02:42:44;;;;;;;;;;;;;;;18.87;53.74;100643.13;5116203;28;1002;-45
2021/09/01 02:45:09;;;;;;;;;;;;;;;19.16;55.97;100645.88;5116981;28;756;-47
2021/09/01 02:47:35;;;;;;;;;;;;;;;19.47;57.28;100657.34;5119894;28;1909;-48
2021/09/01 02:50:02;;;;;;;;;;;;;;;19.75;58.32;100663.00;5120994;28;763;-50
2021/09/01 02:52:27;;;;;;;;;;;;;;;19.86;59.43;100665.66;5120857;28;894;-45
2021/09/01 02:54:53;;;;;;;;;;;;;;;20.14;59.75;100669.38;5120106;28;823;-45
2021/09/01 02:57:18;;;;;;;;;;;;;;;20.21;60.54;100671.75;5120273;28;1009;-45
2021/09/01 02:59:43;;;;;;;;;;;;;;;20.60;59.94;100670.53;5120786;28;756;-46
2021/09/01 03:02:09;;;;;;;;;;;;;;;20.68;60.22;100672.66;5120300;28;744;-46
2021/09/01 03:04:34;;;;;;;;;;;;;;;20.70;60.44;100675.09;5120818;28;830;-50
2021/09/01 03:07:00;;;;;;;;;;;;;;;20.58;59.35;100667.25;5120428;28;855;-45
2021/09/01 03:09:25;;;;;;;;;;;;;;;20.07;56.80;100675.25;5119928;28;1913;-49
2021/09/01 03:11:51;;;;;;;;;;;;;;;19.62;53.47;100669.28;5120101;28;1042;-46
2021/09/01 03:14:16;;;;;;;;;;;;;;;19.10;51.25;100672.66;5120570;28;763;-47
2021/09/01 03:16:41;;;;;;;;;;;;;;;18.80;48.93;100668.28;5119745;28;811;-46
2021/09/01 03:19:07;;;;;;;;;;;;;;;18.40;48.13;100671.13;5120555;28;755;-46
2021/09/01 03:21:32;;;;;;;;;;;;;;;18.08;49.05;100672.47;5120139;28;830;-46
2021/09/01 03:23:58;;;;;;;;;;;;;;;18.84;52.00;100676.78;5120107;28;819;-48
2021/09/01 03:26:26;;;;;;;;;;;;;;;19.03;54.98;100685.13;5119692;28;1017;-46
2021/09/01 03:28:52;;;;;;;;;;;;;;;19.39;56.55;100685.56;5120003;28;1905;-46
2021/09/01 03:31:17;;;;;;;;;;;;;;;19.88;57.16;100678.06;5119871;28;743;-46
2021/09/01 03:33:42;;;;;;;;;;;;;;;20.16;57.76;100689.19;5119869;28;748;-45
2021/09/01 03:36:08;;;;;;;;;;;;;;;20.16;59.00;100686.44;5119759;28;835;-46
2021/09/01 03:38:33;;;;;;;;;;;;;;;20.61;58.27;100686.00;5120030;28;799;-46
2021/09/01 03:40:59;;;;;;;;;;;;;;;20.66;58.92;100688.66;5120028;28;810;-49
2021/09/01 03:43:24;;;;;;;;;;;;;;;20.58;59.56;100681.06;5119899;28;950;-46
2021/09/01 03:45:54;;;;;;;;;;;;;;;20.93;59.00;100687.09;5119110;28;811;-45
2021/09/01 03:48:20;;;;;;;;;;;;;;;20.96;59.06;100686.50;5119776;28;1906;-47
2021/09/01 03:50:45;;;;;;;;;;;;;;;20.67;57.86;100679.25;5119714;28;815;-46
2021/09/01 03:53:11;;;;;;;;;;;;;;;20.20;55.10;100683.91;5119371;28;755;-47
2021/09/01 03:55:36;;;;;;;;;;;;;;;19.56;52.66;100687.00;5118865;28;1042;-46
2021/09/01 03:58:02;;;;;;;;;;;;;;;19.39;49.41;100693.00;5117637;28;961;-57
2021/09/01 04:00:27;;;;;;;;;;;;;;;18.64;48.09;100689.66;5119411;28;783;-55
2021/09/01 04:02:52;;;;;;;;;;;;;;;18.46;46.62;100683.72;5119917;28;760;-47
2021/09/01 04:05:18;;;;;;;;;;;;;;;18.54;48.41;100685.06;5119303;28;744;-49
2021/09/01 04:07:43;;;;;;;;;;;;;;;19.10;51.90;100694.72;5118915;28;1905;-48
2021/09/01 04:10:09;;;;;;;;;;;;;;;19.45;54.10;100692.66;5119450;28;827;-47
2021/09/01 04:12:34;;;;;;;;;;;;;;;19.61;56.04;100689.69;5118454;28;1041;-45
2021/09/01 04:15:00;;;;;;;;;;;;;;;19.99;56.77;100692.50;5119438;28;772;-48
2021/09/01 04:17:29;;;;;;;;;;;;;;;20.15;57.29;100695.88;5119053;28;843;-46
2021/09/01 04:19:55;;;;;;;;;;;;;;;20.22;58.48;100699.06;5119013;28;867;-47
2021/09/01 04:22:20;;;;;;;;;;;;;;;20.48;58.29;100693.09;5119000;28;744;-46
2021/09/01 04:24:46;;;;;;;;;;;;;;;20.71;58.27;100699.66;5119181;28;834;-49
2021/09/01 04:27:11;;;;;;;;;;;;;;;21.00;57.89;100701.34;5118002;28;882;-48
2021/09/01 04:29:37;;;;;;;;;;;;;;;20.80;58.78;100703.38;5118976;28;1965;-46
2021/09/01 04:32:02;;;;;;;;;;;;;;;20.94;58.81;100713.63;5119078;28;820;-45
2021/09/01 04:34:28;;;;;;;;;;;;;;;21.12;58.24;100709.94;5118792;28;868;-48
2021/09/01 04:36:53;;;;;;;;;;;;;;;21.11;56.25;100708.31;5118362;28;847;-46
2021/09/01 04:39:19;;;;;;;;;;;;;;;20.36;54.71;100712.94;5118876;28;827;-45
2021/09/01 04:41:44;;;;;;;;;;;;;;;19.97;51.51;100703.03;5118387;28;1008;-47
2021/09/01 04:44:10;;;;;;;;;;;;;;;19.19;49.98;100716.94;5118521;28;736;-46
2021/09/01 04:46:35;;;;;;;;;;;;;;;18.73;48.58;100709.13;5118590;28;751;-46
2021/09/01 04:49:01;;;;;;;;;;;;;;;18.44;47.31;100713.50;5118339;28;1980;-47
2021/09/01 04:51:26;;;;;;;;;;;;;;;18.93;48.61;100714.47;5118283;28;779;-47
2021/09/01 04:53:52;;;;;;;;;;;;;;;19.20;52.54;100709.50;5118659;28;814;-48
2021/09/01 04:56:17;;;;;;;;;;;;;;;19.81;54.03;100717.03;5118055;28;1001;-48
2021/09/01 04:58:43;;;;;;;;;;;;;;;20.00;55.87;100719.78;5118321;28;942;-45
2021/09/01 05:01:08;;;;;;;;;;;;;;;20.14;57.06;100722.63;5118462;28;935;-45
2021/09/01 05:03:34;;;;;;;;;;;;;;;20.53;56.85;100731.69;5118196;28;849;-46
2021/09/01 05:05:59;;;;;;;;;;;;;;;20.49;58.13;100725.94;5118003;28;866;-47
2021/09/01 05:08:25;;;;;;;;;;;;;;;20.75;58.08;100733.84;5118192;28;1972;-48
2021/09/01 05:10:50;;;;;;;;;;;;;;;20.48;58.48;100729.84;5118034;28;823;-47
2021/09/01 05:13:16;;;;;;;;;;;;;;;20.39;57.52;100726.13;5117447;28;1106;-48
2021/09/01 05:15:41;;;;;;;;;;;;;;;20.16;56.45;100723.16;5118123;28;803;-49
2021/09/01 05:18:06;;;;;;;;;;;;;;;20.02;55.23;100726.97;5117749;28;771;-52
2021/09/01 05:20:32;;;;;;;;;;;;;;;19.75;54.33;100733.94;5118107;28;844;-51
2021/09/01 05:22:59;;;;;;;;;;;;;;;19.70;53.27;100737.59;5099077;28;782;-50
2021/09/01 05:25:25;;;;;;;;;;;;;;;19.71;52.62;100733.69;5117945;28;866;-48
2021/09/01 05:27:50;;;;;;;;;;;;;;;19.58;52.49;100738.00;5099028;28;2045;-53
2021/09/01 05:30:17;;;;;;;;;;;;;;;19.43;52.22;100732.66;5117324;28;780;-49
2021/09/01 05:32:47;;;;;;;;;;;;;;;19.53;51.39;100727.03;5117845;28;775;-46
2021/09/01 05:35:13;;;;;;;;;;;;;;;19.40;51.23;100728.56;5118127;28;791;-46
2021/09/01 05:37:38;;;;;;;;;;;;;;;19.47;52.13;100720.78;5117009;28;835;-48
2021/09/01 05:40:05;;;;;;;;;;;;;;;19.45;53.69;100719.41;5117734;28;814;-50
2021/09/01 05:42:30;;;;;;;;;;;;;;;19.59;54.85;100719.53;5117018;28;915;-53
2021/09/01 05:44:56;;;;;;;;;;;;;;;19.82;55.58;100720.63;5117160;28;771;-48
2021/09/01 05:47:22;;;;;;;;;;;;;;;19.89;56.47;100717.50;5117752;28;843;-49
2021/09/01 05:49:48;;;;;;;;;;;;;;;20.05;57.06;100716.16;5117562;28;1976;-54
2021/09/01 05:52:13;;;;;;;;;;;;;;;20.25;56.96;100717.78;5116973;28;891;-47
2021/09/01 05:54:39;;;;;;;;;;;;;;;20.32;57.25;100717.41;5117204;28;1016;-51
2021/09/01 05:57:12;;;;;;;;;;;;;;;20.54;56.94;100710.41;5116954;28;946;-52
2021/09/01 05:59:47;;;;;;;;;;;;;;;20.44;57.53;100711.41;5098966;28;779;-50
2021/09/01 06:02:20;;;;;;;;;;;;;;;20.76;57.06;100713.41;5117396;28;803;-47
2021/09/01 06:04:45;;;;;;;;;;;;;;;20.62;57.93;100706.97;5117653;28;732;-53
2021/09/01 06:07:12;;;;;;;;;;;;;;;20.64;58.18;100713.81;5098045;28;893;-47
2021/09/01 06:09:37;;;;;;;;;;;;;;;20.75;58.01;100700.69;5116944;28;1976;-51
2021/09/01 06:12:03;;;;;;;;;;;;;;;20.54;57.65;100699.38;5098251;28;1517;-49
2021/09/01 06:14:28;;;;;;;;;;;;;;;20.41;57.11;100701.81;5098512;28;805;-47
2021/09/01 06:16:56;;;;;;;;;;;;;;;20.41;55.55;100698.19;5117634;28;836;-51
2021/09/01 06:19:21;;;;;;;;;;;;;;;20.08;54.87;100696.22;5117442;28;832;-46
2021/09/01 06:21:47;;;;;;;;;;;;;;;19.84;54.13;100690.81;5115935;27;763;-51
2021/09/01 06:24:12;;;;;;;;;;;;;;;20.01;53.08;100693.03;5117071;28;855;-50
2021/09/01 06:26:37;;;;;;;;;;;;;;;19.72;53.04;100699.47;5116545;28;961;-50
2021/09/01 06:29:03;;;;;;;;;;;;;;;19.64;52.57;100697.38;5116402;28;1965;-48
2021/09/01 06:31:34;;;;;;;;;;;;;;;19.64;52.41;100697.38;5117038;28;751;-48
2021/09/01 06:34:00;;;;;;;;;;;;;;;19.63;52.08;100704.03;5116715;28;768;-47
2021/09/01 06:36:25;;;;;;;;;;;;;;;19.58;51.58;100696.63;5116489;28;748;-48
2021/09/01 06:38:51;;;;;;;;;;;;;;;19.46;51.88;100705.34;5117101;28;871;-48
2021/09/01 06:41:16;;;;;;;;;;;;;;;19.45;51.60;100702.88;5116872;28;823;-56
2021/09/01 06:43:41;;;;;;;;;;;;;;;19.39;51.64;100704.88;5116154;28;997;-50
2021/09/01 06:46:07;;;;;;;;;;;;;;;19.14;52.01;100706.81;5116570;28;803;-55
2021/09/01 06:48:32;;;;;;;;;;;;;;;19.18;52.13;100706.22;5116984;28;1909;-48
2021/09/01 06:50:58;;;;;;;;;;;;;;;19.44;53.27;100710.31;5116592;28;803;-46
2021/09/01 06:53:23;;;;;;;;;;;;;;;19.92;55.48;100712.22;5117105;28;819;-46
2021/09/01 06:55:49;;;;;;;;;;;;;;;20.08;57.87;100704.50;5115843;28;1063;-46
2021/09/01 06:58:18;;;;;;;;;;;;;;;20.52;58.34;100708.78;5116078;28;954;-55
2021/09/01 07:00:44;;;;;;;;;;;;;;;20.94;58.32;100708.91;5116564;28;739;-46
2021/09/01 07:03:09;;;;;;;;;;;;;;;21.03;59.08;100706.28;5116639;28;790;-46
2021/09/01 07:05:35;;;;;;;;;;;;;;;20.78;58.09;100704.78;5116337;28;731;-47
2021/09/01 07:08:02;;;;;;;;;;;;;;;20.47;55.89;100717.16;5116512;28;1901;-47
2021/09/01 07:10:28;;;;;;;;;;;;;;;20.00;53.39;100710.69;5098164;28;1262;-46
2021/09/01 07:12:53;;;;;;;;;;;;;;;19.86;50.24;100712.56;5115716;28;1103;-49
2021/09/01 07:15:19;;;;;;;;;;;;;;;19.13;49.39;100707.09;5116624;28;862;-47
2021/09/01 07:17:44;;;;;;;;;;;;;;;19.08;48.34;100707.97;5116711;28;831;-54
2021/09/01 07:20:10;;;;;;;;;;;;;;;19.04;48.47;100709.69;5116574;28;732;-53
2021/09/01 07:22:35;;;;;;;;;;;;;;;19.19;50.21;100711.44;5116544;28;846;-52
2021/09/01 07:25:01;;;;;;;;;;;;;;;19.53;51.98;100716.00;5116238;28;771;-50
2021/09/01 07:27:27;;;;;;;;;;;;;;;19.64;54.43;100706.47;5115652;28;986;-56
2021/09/01 07:29:52;;;;;;;;;;;;;;;19.80;55.81;100709.88;5116244;28;1914;-45
2021/09/01 07:32:18;;;;;;;;;;;;;;;19.84;56.81;100712.88;5116284;28;894;-53
2021/09/01 07:34:43;;;;;;;;;;;;;;;20.06;57.43;100701.22;5119920;28;695;-51
2021/09/01 07:37:08;;;;;;;;;;;;;;;20.21;57.50;100702.94;5119790;28;783;-51
2021/09/01 07:39:34;;;;;;;;;;;;;;;20.41;57.73;100700.97;5119955;28;866;-49
2021/09/01 07:42:00;;;;;;;;;;;;;;;20.56;57.63;100708.19;5119365;28;1002;-46
2021/09/01 07:44:25;;;;;;;;;;;;;;;20.46;58.57;100701.69;5120274;28;783;-55
2021/09/01 07:46:51;;;;;;;;;;;;;;;20.74;58.09;100696.28;5119604;28;1014;-48
2021/09/01 07:49:16;;;;;;;;;;;;;;;20.60;58.82;100706.47;5119557;28;1909;-46
2021/09/01 07:51:41;;;;;;;;;;;;;;;20.62;58.27;100707.81;5119470;28;804;-48
2021/09/01 07:54:07;;;;;;;;;;;;;;;20.29;56.63;100698.69;5119644;28;744;-53
2021/09/01 07:56:32;;;;;;;;;;;;;;;20.03;54.36;100688.03;5118921;28;1009;-52
2021/09/01 07:58:58;;;;;;;;;;;;;;;19.86;52.06;100696.00;5119631;28;930;-50
2021/09/01 08:01:23;;;;;;;;;;;;;;;19.72;50.25;100688.44;5119349;28;484;-52
2021/09/01 08:03:49;;;;;;;;;;;;;;;19.08;49.60;100676.81;5119122;28;783;-54
2021/09/01 08:06:14;;;;;;;;;;;;;;;18.76;49.27;100684.56;5119773;28;812;-53
2021/09/01 08:08:39;;;;;;;;;;;;;;;18.76;49.33;100680.97;5119134;28;1976;-51
2021/09/01 08:11:05;;;;;;;;;;;;;;;18.93;49.63;100680.59;5119261;28;1110;-52
2021/09/01 08:13:30;;;;;;;;;;;;;;;19.03;51.24;100676.88;5119422;28;938;-51
2021/09/01 08:15:56;;;;;;;;;;;;;;;19.46;52.47;100679.66;5118907;28;567;-48
2021/09/01 08:18:21;;;;;;;;;;;;;;;19.56;54.56;100681.47;5119050;28;743;-52
2021/09/01 08:20:47;;;;;;;;;;;;;;;19.86;55.45;100679.47;5119091;28;811;-52
2021/09/01 08:23:12;;;;;;;;;;;;;;;19.94;56.61;100673.28;5119048;28;776;-50
2021/09/01 08:25:38;;;;;;;;;;;;;;;20.15;57.00;100674.59;5118949;28;810;-49
2021/09/01 08:28:04;;;;;;;;;;;;;;;20.17;58.02;100677.88;5118800;28;1978;-49
2021/09/01 08:30:29;;;;;;;;;;;;;;;20.48;57.59;100657.19;5118795;28;785;-50
2021/09/01 08:32:55;;;;;;;;;;;;;;;20.55;57.89;100674.19;5118869;28;847;-49
2021/09/01 08:35:20;;;;;;;;;;;;;;;20.82;57.81;100665.19;5119039;28;859;-48
2021/09/01 08:37:48;;;;;;;;;;;;;;;20.79;58.31;100663.03;5118783;28;760;-48
2021/09/01 08:40:13;;;;;;;;;;;;;;;20.76;58.29;100663.66;5119488;28;742;-47
2021/09/01 08:42:39;;;;;;;;;;;;;;;20.68;57.29;100664.34;5117833;28;981;-48
2021/09/01 08:45:04;;;;;;;;;;;;;;;20.06;56.28;100667.28;5100117;28;1305;-52
2021/09/01 08:47:30;;;;;;;;;;;;;;;19.85;53.58;100656.53;5100460;28;1300;-47
2021/09/01 08:49:56;;;;;;;;;;;;;;;19.52;52.35;100664.72;5118260;28;2046;-51
2021/09/01 08:52:22;;;;;;;;;;;;;;;19.17;50.97;100654.94;5100223;28;1379;-50
2021/09/01 08:54:48;;;;;;;;;;;;;;;19.22;48.94;100660.41;5118413;28;855;-54
2021/09/01 08:57:13;;;;;;;;;;;;;;;18.84;48.54;100638.22;5117868;28;966;-52
2021/09/01 08:59:39;;;;;;;;;;;;;;;18.88;49.21;100633.81;5118449;28;843;-46
2021/09/01 09:02:04;;;;;;;;;;;;;;;19.26;51.08;100640.22;5118259;28;807;-48
2021/09/01 09:04:32;;;;;;;;;;;;;;;19.49;52.62;100635.78;5118189;28;759;-45
2021/09/01 09:07:01;;;;;;;;;;;;;;;19.66;54.57;100631.72;5118130;28;760;-48
2021/09/01 09:09:26;;;;;;;;;;;;;;;19.94;55.13;100640.16;5115255;28;1953;-48
2021/09/01 09:11:52;;;;;;;;;;;;;;;20.11;55.74;100648.69;5116969;28;1030;-48
2021/09/01 09:14:18;;;;;;;;;;;;;;;20.16;56.76;100631.22;5118561;28;815;-50
2021/09/01 09:16:44;;;;;;;;;;;;;;;20.36;56.73;100630.06;5118063;28;752;-45
2021/09/01 09:19:09;;;;;;;;;;;;;;;20.32;57.47;100629.03;5117696;28;814;-47
2021/09/01 09:21:35;;;;;;;;;;;;;;;20.44;57.40;100628.53;5117734;28;752;-49
2021/09/01 09:24:00;;;;;;;;;;;;;;;20.64;57.32;100632.91;5118080;28;936;-45
2021/09/01 09:26:27;;;;;;;;;;;;;;;20.40;58.07;100630.28;5098651;28;1460;-49
2021/09/01 09:29:05;;;;;;;;;;;;;;;20.63;57.83;100626.53;5117824;28;1905;-51
2021/09/01 09:31:31;;;;;;;;;;;;;;;20.78;57.44;100633.75;5117776;28;739;-47
2021/09/01 09:34:03;;;;;;;;;;;;;;;20.58;56.89;100628.56;5117134;28;851;-55
2021/09/01 09:36:28;;;;;;;;;;;;;;;20.15;55.23;100613.03;5117760;28;859;-50
2021/09/01 09:38:53;;;;;;;;;;;;;;;19.93;52.84;100619.19;5118018;28;843;-54
2021/09/01 09:41:22;;;;;;;;;;;;;;;19.59;51.33;100617.47;5099167;28;1012;-48
2021/09/01 09:43:48;;;;;;;;;;;;;;;19.40;49.48;100601.72;5118024;28;771;-49
2021/09/01 09:46:14;;;;;;;;;;;;;;;19.15;48.97;100602.88;5117849;28;1172;-55
2021/09/01 09:48:40;;;;;;;;;;;;;;;19.03;48.53;100600.56;5117337;28;1974;-46
2021/09/01 09:51:07;;;;;;;;;;;;;;;18.93;49.19;100597.94;5117600;28;747;-54
2021/09/01 09:53:33;;;;;;;;;;;;;;;19.13;50.34;100597.66;5117418;28;857;-47
2021/09/01 09:56:06;;;;;;;;;;;;;;;19.40;52.04;100592.63;5116311;28;823;-47
2021/09/01 09:58:33;;;;;;;;;;;;;;;19.69;53.49;100586.16;5116664;28;954;-46
2021/09/01 10:00:58;;;;;;;;;;;;;;;19.82;54.87;100580.72;5099144;28;1317;-46
2021/09/01 10:03:24;;;;;;;;;;;;;;;20.12;55.38;100575.81;5116840;28;756;-47
2021/09/01 10:05:49;;;;;;;;;;;;;;;20.16;56.16;100568.56;5098704;28;846;-46
2021/09/01 10:08:14;;;;;;;;;;;;;;;20.53;55.90;100579.78;5117454;28;1909;-46
2021/09/01 10:10:40;;;;;;;;;;;;;;;20.29;57.22;100572.47;5116911;28;771;-45
2021/09/01 10:13:05;;;;;;;;;;;;;;;20.43;57.41;100572.50;5116205;28;1018;-53
2021/09/01 10:15:31;;;;;;;;;;;;;;;20.49;57.49;100570.47;5099200;28;1050;-45
2021/09/01 10:18:00;;;;;;;;;;;;;;;20.68;57.39;100568.47;5115940;28;1088;-49
2021/09/01 10:20:25;;;;;;;;;;;;;;;20.74;57.30;100571.94;5116957;28;751;-45
2021/09/01 10:23:04;;;;;;;;;;;;;;;20.83;57.01;100569.28;5117106;28;847;-45
2021/09/01 10:25:36;;;;;;;;;;;;;;;20.57;56.85;100567.00;5116342;28;808;-53
2021/09/01 10:28:20;;;;;;;;;;;;;;;20.16;54.41;100556.69;5116737;28;1978;-49
2021/09/01 10:31:04;;;;;;;;;;;;;;;19.51;51.83;100547.25;5116773;28;743;-53
2021/09/01 10:33:40;;;;;;;;;;;;;;;19.06;49.85;100550.34;5117060;28;771;-47
2021/09/01 10:36:24;;;;;;;;;;;;;;;18.78;48.06;100554.81;5117200;28;794;-46
2021/09/01 10:38:53;;;;;;;;;;;;;;;18.86;45.86;100561.59;5116335;28;807;-47
2021/09/01 10:41:47;;;;;;;;;;;;;;;18.73;48.31;100560.38;5116670;28;1024;-46
2021/09/01 10:44:13;;;;;;;;;;;;;;;19.66;53.70;100546.19;5096155;28;847;-57
2021/09/01 10:46:58;;;;;;;;;;;;;;;20.01;56.30;100552.28;5095877;28;866;-57
2021/09/01 10:49:25;;;;;;;;;;;;;;;20.66;57.27;100545.00;5095906;28;1988;-48
2021/09/01 10:51:51;;;;;;;;;;;;;;;20.76;58.61;100549.53;5096087;28;795;-45
2021/09/01 10:54:33;;;;;;;;;;;;;;;21.09;58.46;100544.69;5095795;28;1090;-52
2021/09/01 10:56:59;;;;;;;;;;;;;;;21.40;57.96;100538.47;5101603;28;947;-48
2021/09/01 10:59:25;;;;;;;;;;;;;;;21.01;58.58;100531.59;5116561;28;802;-47
2021/09/01 11:02:07;;;;;;;;;;;;;;;20.76;56.85;100531.03;5116419;28;807;-50
2021/09/01 11:04:33;;;;;;;;;;;;;;;20.08;54.69;100522.34;5116207;28;779;-45
2021/09/01 11:07:05;;;;;;;;;;;;;;;19.62;52.23;100536.88;5117141;28;799;-47
2021/09/01 11:09:30;;;;;;;;;;;;;;;19.37;49.56;100529.81;5120339;28;1976;-47
2021/09/01 11:11:57;;;;;;;;;;;;;;;19.01;48.45;100530.31;5120154;28;1057;-50
2021/09/01 11:14:33;;;;;;;;;;;;;;;18.83;47.62;100512.59;5120423;28;815;-45
2021/09/01 11:16:59;;;;;;;;;;;;;;;18.94;48.43;100516.91;5119872;28;831;-44
2021/09/01 11:19:24;;;;;;;;;;;;;;;19.08;50.80;100511.47;5120399;28;812;-48
2021/09/01 11:21:50;;;;;;;;;;;;;;;19.44;53.36;100503.50;5120387;28;843;-49
2021/09/01 11:24:17;;;;;;;;;;;;;;;19.67;55.73;100507.28;5119921;28;850;-45
2021/09/01 11:26:43;;;;;;;;;;;;;;;20.15;57.22;100506.19;5119840;28;962;-48
2021/09/01 11:29:10;;;;;;;;;;;;;;;20.48;57.88;100499.78;5119735;28;1906;-49
2021/09/01 11:31:45;;;;;;;;;;;;;;;20.83;58.19;100495.50;5119923;28;823;-48
2021/09/01 11:34:12;;;;;;;;;;;;;;;20.88;59.09;100497.31;5120051;28;850;-45
2021/09/01 11:36:37;;;;;;;;;;;;;;;20.55;57.73;100482.78;5119833;28;744;-49
2021/09/01 11:39:03;;;;;;;;;;;;;;;20.37;55.50;100479.00;5119813;28;918;-49
2021/09/01 11:41:28;;;;;;;;;;;;;;;20.15;53.50;100486.06;5119263;28;934;-50
2021/09/01 11:43:56;;;;;;;;;;;;;;;19.67;52.29;100470.59;5119758;28;1016;-51
2021/09/01 11:46:22;;;;;;;;;;;;;;;19.44;51.17;100470.41;5120327;28;728;-46
2021/09/01 11:48:47;;;;;;;;;;;;;;;19.24;50.48;100468.00;5119782;28;1969;-52
2021/09/01 11:51:13;;;;;;;;;;;;;;;19.00;50.16;100460.63;5119817;28;815;-45
2021/09/01 11:53:42;;;;;;;;;;;;;;;19.25;50.04;100455.81;5119353;28;811;-47
2021/09/01 11:56:08;;;;;;;;;;;;;;;19.55;50.24;100459.22;5119547;28;894;-44
2021/09/01 11:58:33;;;;;;;;;;;;;;;19.51;51.37;100452.66;5119161;28;966;-50
2021/09/01 12:00:59;;;;;;;;;;;;;;;19.48;52.33;100449.38;5100670;28;834;-48
2021/09/01 12:03:25;;;;;;;;;;;;;;;19.38;53.00;100462.53;5119911;28;774;-52
2021/09/01 12:06:03;;;;;;;;;;;;;;;19.66;54.01;100466.19;5101113;28;740;-53
2021/09/01 12:08:28;;;;;;;;;;;;;;;19.99;56.24;100453.22;5100854;28;1977;-51
2021/09/01 12:10:55;;;;;;;;;;;;;;;20.33;56.89;100452.00;5119243;28;836;-54
2021/09/01 12:13:36;;;;;;;;;;;;;;;20.41;58.03;100453.25;5101004;28;1027;-55
2021/09/01 12:16:02;;;;;;;;;;;;;;;20.67;58.18;100445.25;5118679;28;791;-45
2021/09/01 12:18:27;;;;;;;;;;;;;;;20.96;58.11;100438.53;5118515;28;859;-55
2021/09/01 12:20:56;;;;;;;;;;;;;;;21.25;57.76;100431.81;5119064;28;828;-45
2021/09/01 12:23:22;;;;;;;;;;;;;;;21.13;58.02;100426.00;5118858;28;767;-50
2021/09/01 12:25:47;;;;;;;;;;;;;;;20.99;57.27;100415.00;5119012;28;814;-52
2021/09/01 12:28:17;;;;;;;;;;;;;;;20.51;55.34;100417.13;5118844;28;1929;-52
2021/09/01 12:30:46;;;;;;;;;;;;;;;20.01;52.75;100428.09;5118727;28;853;-47
2021/09/01 12:33:13;;;;;;;;;;;;;;;19.64;50.74;100421.53;5118756;28;783;-46
2021/09/01 12:35:38;;;;;;;;;;;;;;;19.07;49.40;100405.09;5118734;28;827;-51
2021/09/01 12:38:06;;;;;;;;;;;;;;;18.74;48.30;100405.84;5118362;28;819;-51
2021/09/01 12:40:32;;;;;;;;;;;;;;;18.62;47.84;100405.44;5101764;28;844;-46
2021/09/01 12:43:07;;;;;;;;;;;;;;;18.70;48.23;100403.97;5098003;28;1264;-55
2021/09/01 12:45:36;;;;;;;;;;;;;;;19.34;52.84;100407.16;5080557;28;990;-56
2021/09/01 12:48:03;;;;;;;;;;;;;;;20.06;55.40;100411.41;5109278;28;1977;-46
2021/09/01 12:50:34;;;;;;;;;;;;;;;20.30;57.65;100402.94;5099458;28;772;-48
2021/09/01 12:53:00;;;;;;;;;;;;;;;20.77;58.39;100416.59;5105814;28;740;-45